sensor_id;sensor_type;location;lat;lon;timestamp;pressure;altitude;pressure_sealevel;temperature;humidity
20889;BME280;10604;51.976;7.594;2022-09-09T00:02:19;100066.19;;;33.84;31.76
20889;BME280;10604;51.976;7.594;2022-09-09T00:07:25;100059.69;;;33.71;31.51
20889;BME280;10604;51.976;7.594;2022-09-09T00:21:28;100060.72;;;33.84;31.04
20889;BME280;10604;51.976;7.594;2022-09-09T00:23:57;100057.94;;;34.10;30.99
20889;BME280;10604;51.976;7.594;2022-09-09T00:26:45;100058.41;;;33.80;31.12
20889;BME280;10604;51.976;7.594;2022-09-09T00:29:27;100057.75;;;33.92;31.04
20889;BME280;10604;51.976;7.594;2022-09-09T00:31:57;100054.38;;;34.03;31.76
20889;BME280;10604;51.976;7.594;2022-09-09T00:34:26;100061.41;;;34.43;31.16
20889;BME280;10604;51.976;7.594;2022-09-09T00:36:53;100053.25;;;34.30;32.02
20889;BME280;10604;51.976;7.594;2022-09-09T00:39:41;100046.28;;;34.21;32.27
20889;BME280;10604;51.976;7.594;2022-09-09T00:42:58;100040.84;;;34.08;32.19
20889;BME280;10604;51.976;7.594;2022-09-09T00:53:30;100040.41;;;34.11;32.88
20889;BME280;10604;51.976;7.594;2022-09-09T00:56:12;100040.00;;;34.07;32.86
20889;BME280;10604;51.976;7.594;2022-09-09T00:58:38;100040.44;;;33.98;32.82
20889;BME280;10604;51.976;7.594;2022-09-09T01:01:11;100044.50;;;33.75;33.50
20889;BME280;10604;51.976;7.594;2022-09-09T01:03:49;100046.78;;;33.92;33.36
20889;BME280;10604;51.976;7.594;2022-09-09T01:06:31;100040.47;;;33.91;32.60
20889;BME280;10604;51.976;7.594;2022-09-09T01:17:01;100037.94;;;33.90;32.41
20889;BME280;10604;51.976;7.594;2022-09-09T01:20:02;100033.81;;;33.28;33.10
20889;BME280;10604;51.976;7.594;2022-09-09T01:27:54;100043.03;;;33.14;33.91
20889;BME280;10604;51.976;7.594;2022-09-09T01:30:21;100046.78;;;32.93;33.53
20889;BME280;10604;51.976;7.594;2022-09-09T01:32:50;100052.22;;;32.73;33.66
20889;BME280;10604;51.976;7.594;2022-09-09T01:37:55;100045.97;;;33.19;32.81
20889;BME280;10604;51.976;7.594;2022-09-09T01:40:20;100052.06;;;32.94;33.80
20889;BME280;10604;51.976;7.594;2022-09-09T01:42:46;100048.69;;;33.12;32.80
20889;BME280;10604;51.976;7.594;2022-09-09T01:45:11;100045.97;;;33.12;32.81
20889;BME280;10604;51.976;7.594;2022-09-09T01:47:37;100044.25;;;32.98;33.17
20889;BME280;10604;51.976;7.594;2022-09-09T01:50:03;100050.75;;;32.77;33.78
20889;BME280;10604;51.976;7.594;2022-09-09T01:52:29;100044.72;;;33.01;32.98
20889;BME280;10604;51.976;7.594;2022-09-09T01:54:55;100042.63;;;33.50;33.06
20889;BME280;10604;51.976;7.594;2022-09-09T01:57:31;100051.47;;;33.45;32.92
20889;BME280;10604;51.976;7.594;2022-09-09T02:00:11;100049.53;;;33.13;33.28
20889;BME280;10604;51.976;7.594;2022-09-09T02:03:03;100047.44;;;33.08;33.67
20889;BME280;10604;51.976;7.594;2022-09-09T02:05:36;100048.09;;;33.03;33.60
20889;BME280;10604;51.976;7.594;2022-09-09T02:08:11;100050.66;;;33.38;32.68
20889;BME280;10604;51.976;7.594;2022-09-09T02:10:46;100051.03;;;33.09;33.46
20889;BME280;10604;51.976;7.594;2022-09-09T02:13:15;100050.22;;;33.28;32.75
20889;BME280;10604;51.976;7.594;2022-09-09T02:18:15;100056.97;;;33.45;32.39
20889;BME280;10604;51.976;7.594;2022-09-09T02:20:44;100055.06;;;33.39;32.87
20889;BME280;10604;51.976;7.594;2022-09-09T02:23:11;100053.13;;;33.07;33.52
20889;BME280;10604;51.976;7.594;2022-09-09T02:25:40;100053.16;;;33.59;32.83
20889;BME280;10604;51.976;7.594;2022-09-09T02:28:08;100054.38;;;33.70;32.12
20889;BME280;10604;51.976;7.594;2022-09-09T02:30:36;100056.31;;;33.56;32.39
20889;BME280;10604;51.976;7.594;2022-09-09T02:33:04;100059.00;;;33.69;32.64
20889;BME280;10604;51.976;7.594;2022-09-09T02:35:32;100057.59;;;33.73;31.89
20889;BME280;10604;51.976;7.594;2022-09-09T02:38:07;100053.78;;;33.81;31.72
20889;BME280;10604;51.976;7.594;2022-09-09T02:40:34;100050.00;;;33.49;32.17
20889;BME280;10604;51.976;7.594;2022-09-09T02:42:59;100055.91;;;33.59;32.58
20889;BME280;10604;51.976;7.594;2022-09-09T02:45:29;100050.19;;;33.54;32.30
20889;BME280;10604;51.976;7.594;2022-09-09T02:47:59;100052.31;;;33.52;32.45
20889;BME280;10604;51.976;7.594;2022-09-09T02:50:54;100057.78;;;33.52;32.20
20889;BME280;10604;51.976;7.594;2022-09-09T02:53:35;100054.41;;;33.63;32.58
20889;BME280;10604;51.976;7.594;2022-09-09T02:56:09;100055.66;;;33.54;32.66
20889;BME280;10604;51.976;7.594;2022-09-09T02:58:39;100056.31;;;33.56;32.10
20889;BME280;10604;51.976;7.594;2022-09-09T03:01:04;100061.56;;;33.51;32.66
20889;BME280;10604;51.976;7.594;2022-09-09T03:03:30;100063.66;;;33.69;32.68
20889;BME280;10604;51.976;7.594;2022-09-09T03:05:56;100071.25;;;33.54;32.29
20889;BME280;10604;51.976;7.594;2022-09-09T03:08:22;100068.69;;;33.13;32.61
20889;BME280;10604;51.976;7.594;2022-09-09T03:10:47;100067.47;;;33.41;32.37
20889;BME280;10604;51.976;7.594;2022-09-09T03:13:13;100070.38;;;33.07;33.26
20889;BME280;10604;51.976;7.594;2022-09-09T03:15:40;100069.59;;;33.46;32.43
20889;BME280;10604;51.976;7.594;2022-09-09T03:18:05;100065.78;;;33.21;32.88
20889;BME280;10604;51.976;7.594;2022-09-09T03:20:31;100065.53;;;33.09;32.88
20889;BME280;10604;51.976;7.594;2022-09-09T03:22:57;100059.81;;;32.84;33.95
20889;BME280;10604;51.976;7.594;2022-09-09T03:25:23;100056.03;;;32.92;33.73
20889;BME280;10604;51.976;7.594;2022-09-09T03:27:50;100059.88;;;33.50;32.91
20889;BME280;10604;51.976;7.594;2022-09-09T03:30:20;100056.31;;;33.30;33.32
20889;BME280;10604;51.976;7.594;2022-09-09T03:32:46;100054.84;;;33.27;32.60
20889;BME280;10604;51.976;7.594;2022-09-09T03:35:11;100055.22;;;33.11;33.22
20889;BME280;10604;51.976;7.594;2022-09-09T03:37:36;100056.88;;;32.92;33.63
20889;BME280;10604;51.976;7.594;2022-09-09T03:40:04;100053.13;;;33.13;33.13
20889;BME280;10604;51.976;7.594;2022-09-09T03:42:29;100056.69;;;32.94;33.29
20889;BME280;10604;51.976;7.594;2022-09-09T03:45:15;100054.78;;;32.81;33.14
20889;BME280;10604;51.976;7.594;2022-09-09T03:47:40;100053.41;;;32.57;33.67
20889;BME280;10604;51.976;7.594;2022-09-09T03:50:07;100055.56;;;32.69;33.31
20889;BME280;10604;51.976;7.594;2022-09-09T03:52:38;100046.53;;;32.68;33.90
20889;BME280;10604;51.976;7.594;2022-09-09T03:55:05;100040.34;;;32.46;34.01
20889;BME280;10604;51.976;7.594;2022-09-09T03:57:31;100048.13;;;32.49;34.14
20889;BME280;10604;51.976;7.594;2022-09-09T04:00:00;100040.34;;;32.46;34.04
20889;BME280;10604;51.976;7.594;2022-09-09T04:02:26;100049.16;;;32.48;33.52
20889;BME280;10604;51.976;7.594;2022-09-09T04:04:51;100040.34;;;32.40;33.93
20889;BME280;10604;51.976;7.594;2022-09-09T04:07:16;100041.59;;;32.44;34.16
20889;BME280;10604;51.976;7.594;2022-09-09T04:09:42;100044.50;;;32.36;34.50
20889;BME280;10604;51.976;7.594;2022-09-09T04:12:07;100043.69;;;32.48;34.29
20889;BME280;10604;51.976;7.594;2022-09-09T04:14:33;100042.84;;;32.48;34.09
20889;BME280;10604;51.976;7.594;2022-09-09T04:16:58;100049.91;;;32.22;34.57
20889;BME280;10604;51.976;7.594;2022-09-09T04:19:24;100046.91;;;32.11;34.59
20889;BME280;10604;51.976;7.594;2022-09-09T04:21:50;100052.81;;;32.14;34.57
20889;BME280;10604;51.976;7.594;2022-09-09T04:24:16;100049.72;;;32.24;34.56
20889;BME280;10604;51.976;7.594;2022-09-09T04:26:42;100046.25;;;32.63;33.74
20889;BME280;10604;51.976;7.594;2022-09-09T04:29:07;100045.41;;;32.56;33.80
20889;BME280;10604;51.976;7.594;2022-09-09T04:31:33;100047.56;;;32.67;34.16
20889;BME280;10604;51.976;7.594;2022-09-09T04:33:59;100047.56;;;31.85;34.91
20889;BME280;10604;51.976;7.594;2022-09-09T04:36:27;100046.53;;;31.86;35.15
20889;BME280;10604;51.976;7.594;2022-09-09T04:38:52;100046.66;;;32.47;34.80
20889;BME280;10604;51.976;7.594;2022-09-09T04:41:18;100058.56;;;32.80;34.12
20889;BME280;10604;51.976;7.594;2022-09-09T04:43:43;100054.53;;;32.76;33.64
20889;BME280;10604;51.976;7.594;2022-09-09T04:46:09;100062.31;;;32.79;33.77
20889;BME280;10604;51.976;7.594;2022-09-09T04:48:35;100062.78;;;32.89;33.99
20889;BME280;10604;51.976;7.594;2022-09-09T04:51:03;100069.09;;;32.96;33.50
20889;BME280;10604;51.976;7.594;2022-09-09T04:53:30;100069.69;;;32.85;33.51
20889;BME280;10604;51.976;7.594;2022-09-09T04:56:10;100070.31;;;32.74;33.71
20889;BME280;10604;51.976;7.594;2022-09-09T04:58:36;100065.25;;;32.71;34.18
20889;BME280;10604;51.976;7.594;2022-09-09T05:01:17;100070.53;;;32.79;33.61
20889;BME280;10604;51.976;7.594;2022-09-09T05:03:43;100068.84;;;32.78;33.90
20889;BME280;10604;51.976;7.594;2022-09-09T05:06:13;100062.91;;;32.20;34.57
20889;BME280;10604;51.976;7.594;2022-09-09T05:08:39;100061.81;;;32.62;34.48
20889;BME280;10604;51.976;7.594;2022-09-09T05:11:15;100062.81;;;32.42;34.32
20889;BME280;10604;51.976;7.594;2022-09-09T05:13:41;100058.66;;;32.11;35.07
20889;BME280;10604;51.976;7.594;2022-09-09T05:16:07;100055.91;;;32.46;35.08
20889;BME280;10604;51.976;7.594;2022-09-09T05:18:32;100056.41;;;32.69;34.04
20889;BME280;10604;51.976;7.594;2022-09-09T05:21:00;100050.50;;;32.65;33.98
20889;BME280;10604;51.976;7.594;2022-09-09T05:23:26;100055.16;;;32.78;34.35
20889;BME280;10604;51.976;7.594;2022-09-09T05:25:58;100052.31;;;33.26;33.60
20889;BME280;10604;51.976;7.594;2022-09-09T05:28:24;100056.50;;;33.61;32.75
20889;BME280;10604;51.976;7.594;2022-09-09T05:31:04;100058.66;;;33.46;33.00
20889;BME280;10604;51.976;7.594;2022-09-09T05:33:31;100055.47;;;33.36;33.21
20889;BME280;10604;51.976;7.594;2022-09-09T05:36:02;100052.75;;;33.29;33.14
20889;BME280;10604;51.976;7.594;2022-09-09T05:38:29;100054.34;;;32.84;33.87
20889;BME280;10604;51.976;7.594;2022-09-09T05:40:55;100055.19;;;32.91;34.11
20889;BME280;10604;51.976;7.594;2022-09-09T05:43:22;100050.56;;;32.85;34.22
20889;BME280;10604;51.976;7.594;2022-09-09T05:46:04;100053.94;;;33.00;34.35
20889;BME280;10604;51.976;7.594;2022-09-09T05:48:31;100060.63;;;32.72;34.25
20889;BME280;10604;51.976;7.594;2022-09-09T05:50:58;100054.34;;;32.91;34.98
20889;BME280;10604;51.976;7.594;2022-09-09T05:53:24;100060.69;;;33.11;33.75
20889;BME280;10604;51.976;7.594;2022-09-09T05:55:50;100052.72;;;33.62;32.92
20889;BME280;10604;51.976;7.594;2022-09-09T05:58:15;100062.63;;;33.50;33.94
20889;BME280;10604;51.976;7.594;2022-09-09T06:00:42;100060.72;;;33.57;33.30
20889;BME280;10604;51.976;7.594;2022-09-09T06:03:11;100062.00;;;33.41;33.34
20889;BME280;10604;51.976;7.594;2022-09-09T06:05:36;100063.69;;;33.23;34.33
20889;BME280;10604;51.976;7.594;2022-09-09T06:08:02;100059.88;;;33.50;33.86
20889;BME280;10604;51.976;7.594;2022-09-09T06:10:28;100052.72;;;33.10;34.98
20889;BME280;10604;51.976;7.594;2022-09-09T06:12:53;100056.50;;;33.09;34.15
20889;BME280;10604;51.976;7.594;2022-09-09T06:15:19;100053.38;;;33.25;34.06
20889;BME280;10604;51.976;7.594;2022-09-09T06:17:44;100047.28;;;33.29;34.26
20889;BME280;10604;51.976;7.594;2022-09-09T06:20:10;100057.06;;;32.84;34.72
20889;BME280;10604;51.976;7.594;2022-09-09T06:22:35;100053.56;;;33.10;33.81
20889;BME280;10604;51.976;7.594;2022-09-09T06:25:01;100059.06;;;33.36;34.38
20889;BME280;10604;51.976;7.594;2022-09-09T06:27:27;100056.69;;;33.00;34.18
20889;BME280;10604;51.976;7.594;2022-09-09T06:29:53;100055.00;;;33.13;34.57
20889;BME280;10604;51.976;7.594;2022-09-09T06:32:19;100056.94;;;33.58;33.57
20889;BME280;10604;51.976;7.594;2022-09-09T06:34:44;100054.81;;;33.47;34.08
20889;BME280;10604;51.976;7.594;2022-09-09T06:37:10;100063.66;;;33.69;33.17
20889;BME280;10604;51.976;7.594;2022-09-09T06:39:35;100061.88;;;34.27;32.54
20889;BME280;10604;51.976;7.594;2022-09-09T06:42:01;100066.00;;;33.78;32.98
20889;BME280;10604;51.976;7.594;2022-09-09T06:44:26;100062.31;;;34.11;33.46
20889;BME280;10604;51.976;7.594;2022-09-09T06:46:52;100067.72;;;34.44;32.48
20889;BME280;10604;51.976;7.594;2022-09-09T06:49:17;100067.78;;;34.69;32.35
20889;BME280;10604;51.976;7.594;2022-09-09T06:51:43;100068.19;;;35.10;31.52
20889;BME280;10604;51.976;7.594;2022-09-09T06:54:09;100071.41;;;34.63;32.12
20889;BME280;10604;51.976;7.594;2022-09-09T06:56:37;100071.88;;;34.60;32.56
20889;BME280;10604;51.976;7.594;2022-09-09T06:59:07;100073.63;;;34.41;33.19
20889;BME280;10604;51.976;7.594;2022-09-09T07:01:41;100083.19;;;34.12;33.08
20889;BME280;10604;51.976;7.594;2022-09-09T07:04:09;100080.50;;;33.86;33.58
20889;BME280;10604;51.976;7.594;2022-09-09T07:06:45;100080.28;;;34.65;32.39
20889;BME280;10604;51.976;7.594;2022-09-09T07:09:15;100088.34;;;34.53;32.95
20889;BME280;10604;51.976;7.594;2022-09-09T07:11:46;100082.56;;;34.23;32.73
20889;BME280;10604;51.976;7.594;2022-09-09T07:14:12;100075.78;;;34.19;32.62
20889;BME280;10604;51.976;7.594;2022-09-09T07:16:42;100085.66;;;34.84;32.05
20889;BME280;10604;51.976;7.594;2022-09-09T07:19:08;100083.56;;;34.86;32.04
20889;BME280;10604;51.976;7.594;2022-09-09T07:21:34;100081.25;;;34.19;33.02
20889;BME280;10604;51.976;7.594;2022-09-09T07:23:59;100080.81;;;34.35;32.58
20889;BME280;10604;51.976;7.594;2022-09-09T07:26:28;100084.47;;;34.67;32.61
20889;BME280;10604;51.976;7.594;2022-09-09T07:28:54;100078.81;;;35.00;32.02
20889;BME280;10604;51.976;7.594;2022-09-09T07:31:32;100077.19;;;34.92;31.58
20889;BME280;10604;51.976;7.594;2022-09-09T07:33:59;100082.13;;;34.71;32.03
20889;BME280;10604;51.976;7.594;2022-09-09T07:36:36;100091.66;;;35.06;31.63
20889;BME280;10604;51.976;7.594;2022-09-09T07:39:13;100082.78;;;34.73;32.30
20889;BME280;10604;51.976;7.594;2022-09-09T07:41:44;100083.69;;;34.53;32.51
20889;BME280;10604;51.976;7.594;2022-09-09T07:44:13;100081.88;;;34.85;31.72
20889;BME280;10604;51.976;7.594;2022-09-09T07:46:40;100083.06;;;34.51;31.96
20889;BME280;10604;51.976;7.594;2022-09-09T07:49:06;100085.00;;;35.20;31.33
20889;BME280;10604;51.976;7.594;2022-09-09T07:51:35;100092.94;;;33.55;33.35
20889;BME280;10604;51.976;7.594;2022-09-09T07:54:05;100095.28;;;34.55;32.34
20889;BME280;10604;51.976;7.594;2022-09-09T07:56:31;100082.09;;;35.15;31.95
20889;BME280;10604;51.976;7.594;2022-09-09T07:58:57;100087.59;;;34.26;32.38
20889;BME280;10604;51.976;7.594;2022-09-09T08:01:30;100087.44;;;35.60;31.43
20889;BME280;10604;51.976;7.594;2022-09-09T08:03:59;100088.16;;;35.98;30.84
20889;BME280;10604;51.976;7.594;2022-09-09T08:06:30;100086.34;;;35.43;30.98
20889;BME280;10604;51.976;7.594;2022-09-09T08:08:56;100091.06;;;34.60;31.72
20889;BME280;10604;51.976;7.594;2022-09-09T08:11:23;100084.06;;;34.64;31.65
20889;BME280;10604;51.976;7.594;2022-09-09T08:13:50;100089.78;;;34.55;31.96
20889;BME280;10604;51.976;7.594;2022-09-09T08:16:19;100091.63;;;35.44;31.09
20889;BME280;10604;51.976;7.594;2022-09-09T08:18:49;100094.47;;;35.56;31.15
20889;BME280;10604;51.976;7.594;2022-09-09T08:21:23;100084.34;;;34.93;31.76
20889;BME280;10604;51.976;7.594;2022-09-09T08:23:51;100100.38;;;35.53;30.93
20889;BME280;10604;51.976;7.594;2022-09-09T08:26:21;100094.47;;;35.56;30.61
20889;BME280;10604;51.976;7.594;2022-09-09T08:28:50;100098.81;;;36.31;29.98
20889;BME280;10604;51.976;7.594;2022-09-09T08:31:19;100093.81;;;37.06;28.74
20889;BME280;10604;51.976;7.594;2022-09-09T08:33:46;100087.22;;;37.37;28.51
20889;BME280;10604;51.976;7.594;2022-09-09T08:36:14;100096.94;;;36.07;30.08
20889;BME280;10604;51.976;7.594;2022-09-09T08:38:43;100078.38;;;36.75;29.33
20889;BME280;10604;51.976;7.594;2022-09-09T08:43:37;100103.53;;;35.81;29.50
20889;BME280;10604;51.976;7.594;2022-09-09T08:46:24;100096.41;;;35.98;29.32
20889;BME280;10604;51.976;7.594;2022-09-09T08:51:46;100103.56;;;37.20;28.91
20889;BME280;10604;51.976;7.594;2022-09-09T08:54:12;100103.44;;;36.67;28.42
20889;BME280;10604;51.976;7.594;2022-09-09T08:56:38;100107.25;;;35.93;28.83
20889;BME280;10604;51.976;7.594;2022-09-09T08:59:04;100100.25;;;36.16;28.61
20889;BME280;10604;51.976;7.594;2022-09-09T09:04:55;100105.06;;;36.38;27.83
20889;BME280;10604;51.976;7.594;2022-09-09T09:07:25;100098.28;;;36.41;28.07
20889;BME280;10604;51.976;7.594;2022-09-09T09:12:26;100103.03;;;36.82;27.16
20889;BME280;10604;51.976;7.594;2022-09-09T09:14:53;100106.53;;;36.41;27.51
20889;BME280;10604;51.976;7.594;2022-09-09T09:17:23;100110.16;;;37.84;26.82
20889;BME280;10604;51.976;7.594;2022-09-09T09:19:49;100109.94;;;37.03;26.76
20889;BME280;10604;51.976;7.594;2022-09-09T09:22:32;100111.69;;;37.69;26.56
20889;BME280;10604;51.976;7.594;2022-09-09T09:30:13;100106.19;;;37.92;25.76
20889;BME280;10604;51.976;7.594;2022-09-09T09:32:44;100099.28;;;39.21;25.16
20889;BME280;10604;51.976;7.594;2022-09-09T09:35:13;100110.16;;;39.28;25.15
20889;BME280;10604;51.976;7.594;2022-09-09T09:37:40;100108.28;;;40.34;24.16
20889;BME280;10604;51.976;7.594;2022-09-09T09:40:24;100108.28;;;38.60;24.57
20889;BME280;10604;51.976;7.594;2022-09-09T09:43:00;100112.38;;;39.42;23.96
20889;BME280;10604;51.976;7.594;2022-09-09T09:45:28;100112.06;;;39.56;23.42
20889;BME280;10604;51.976;7.594;2022-09-09T09:47:58;100107.19;;;39.46;23.47
20889;BME280;10604;51.976;7.594;2022-09-09T09:50:24;100105.72;;;38.18;24.92
20889;BME280;10604;51.976;7.594;2022-09-09T09:52:57;100101.78;;;38.66;25.02
20889;BME280;10604;51.976;7.594;2022-09-09T09:55:24;100109.66;;;38.74;25.01
20889;BME280;10604;51.976;7.594;2022-09-09T09:57:50;100109.78;;;39.69;23.10
20889;BME280;10604;51.976;7.594;2022-09-09T10:00:22;100107.84;;;39.70;23.49
20889;BME280;10604;51.976;7.594;2022-09-09T10:02:48;100100.31;;;38.23;24.02
20889;BME280;10604;51.976;7.594;2022-09-09T10:05:22;100099.69;;;39.13;23.63
20889;BME280;10604;51.976;7.594;2022-09-09T10:08:20;100092.84;;;37.54;24.29
20889;BME280;10604;51.976;7.594;2022-09-09T10:11:16;100098.38;;;40.38;22.72
20889;BME280;10604;51.976;7.594;2022-09-09T10:16:57;100105.97;;;40.09;22.53
20889;BME280;10604;51.976;7.594;2022-09-09T10:19:35;100095.28;;;39.29;23.64
20889;BME280;10604;51.976;7.594;2022-09-09T10:33:09;100104.06;;;36.69;25.64
20889;BME280;10604;51.976;7.594;2022-09-09T10:55:23;100097.19;;;40.12;23.31
20889;BME280;10604;51.976;7.594;2022-09-09T10:57:48;100084.34;;;39.50;22.90
20889;BME280;10604;51.976;7.594;2022-09-09T11:00:18;100077.66;;;37.51;24.97
20889;BME280;10604;51.976;7.594;2022-09-09T11:02:48;100076.78;;;36.68;25.67
20889;BME280;10604;51.976;7.594;2022-09-09T11:05:41;100078.47;;;37.29;24.83
20889;BME280;10604;51.976;7.594;2022-09-09T11:08:13;100079.13;;;37.89;24.50
20889;BME280;10604;51.976;7.594;2022-09-09T11:11:25;100073.69;;;39.26;23.07
20889;BME280;10604;51.976;7.594;2022-09-09T11:13:56;100078.06;;;38.65;23.19
20889;BME280;10604;51.976;7.594;2022-09-09T11:19:02;100068.16;;;39.26;21.97
20889;BME280;10604;51.976;7.594;2022-09-09T11:21:35;100081.28;;;39.19;21.43
20889;BME280;10604;51.976;7.594;2022-09-09T11:24:06;100072.13;;;38.73;22.11
20889;BME280;10604;51.976;7.594;2022-09-09T11:26:41;100082.69;;;40.05;21.66
20889;BME280;10604;51.976;7.594;2022-09-09T11:29:46;100076.28;;;40.21;20.92
20889;BME280;10604;51.976;7.594;2022-09-09T11:38:52;100074.16;;;37.21;23.97
20889;BME280;10604;51.976;7.594;2022-09-09T11:41:19;100080.81;;;38.13;23.35
20889;BME280;10604;51.976;7.594;2022-09-09T11:43:51;100078.41;;;38.05;23.18
20889;BME280;10604;51.976;7.594;2022-09-09T11:46:22;100076.38;;;38.64;22.89
20889;BME280;10604;51.976;7.594;2022-09-09T11:48:59;100087.88;;;38.61;22.76
20889;BME280;10604;51.976;7.594;2022-09-09T11:51:30;100090.09;;;39.66;22.13
20889;BME280;10604;51.976;7.594;2022-09-09T11:54:44;100093.13;;;39.64;21.71
20889;BME280;10604;51.976;7.594;2022-09-09T11:56:49;100093.41;;;38.61;22.57
20889;BME280;10604;51.976;7.594;2022-09-09T11:59:32;100089.00;;;41.41;20.67
20889;BME280;10604;51.976;7.594;2022-09-09T12:02:03;100080.81;;;37.13;23.47
20889;BME280;10604;51.976;7.594;2022-09-09T12:04:46;100080.66;;;39.62;21.67
20889;BME280;10604;51.976;7.594;2022-09-09T12:07:38;100078.00;;;38.01;22.72
20889;BME280;10604;51.976;7.594;2022-09-09T12:10:26;100075.09;;;38.83;22.08
20889;BME280;10604;51.976;7.594;2022-09-09T12:12:54;100068.50;;;38.84;22.01
20889;BME280;10604;51.976;7.594;2022-09-09T12:15:24;100066.81;;;39.11;21.59
20889;BME280;10604;51.976;7.594;2022-09-09T12:17:57;100072.72;;;39.48;22.01
20889;BME280;10604;51.976;7.594;2022-09-09T12:20:35;100073.63;;;38.92;21.18
20889;BME280;10604;51.976;7.594;2022-09-09T12:28:48;100067.78;;;38.37;21.86
20889;BME280;10604;51.976;7.594;2022-09-09T12:34:16;100076.78;;;40.35;20.35
20889;BME280;10604;51.976;7.594;2022-09-09T12:36:45;100058.34;;;40.94;19.64
20889;BME280;10604;51.976;7.594;2022-09-09T12:39:28;100069.81;;;42.08;19.32
20889;BME280;10604;51.976;7.594;2022-09-09T12:41:56;100064.78;;;41.58;18.77
20889;BME280;10604;51.976;7.594;2022-09-09T12:44:25;100063.38;;;41.24;19.06
20889;BME280;10604;51.976;7.594;2022-09-09T12:46:53;100058.00;;;39.43;20.52
20889;BME280;10604;51.976;7.594;2022-09-09T12:51:54;100055.31;;;38.58;22.02
20889;BME280;10604;51.976;7.594;2022-09-09T12:54:22;100064.13;;;39.00;21.41
20889;BME280;10604;51.976;7.594;2022-09-09T12:56:49;100058.78;;;39.77;20.82
20889;BME280;10604;51.976;7.594;2022-09-09T12:59:27;100063.41;;;40.10;20.79
20889;BME280;10604;51.976;7.594;2022-09-09T13:01:59;100058.88;;;40.91;20.13
20889;BME280;10604;51.976;7.594;2022-09-09T13:04:25;100051.38;;;41.87;19.54
20889;BME280;10604;51.976;7.594;2022-09-09T13:06:51;100044.63;;;41.73;20.06
20889;BME280;10604;51.976;7.594;2022-09-09T13:09:17;100041.22;;;40.97;20.04
20889;BME280;10604;51.976;7.594;2022-09-09T13:11:47;100045.59;;;40.22;20.53
20889;BME280;10604;51.976;7.594;2022-09-09T13:14:31;100048.38;;;40.44;20.90
20889;BME280;10604;51.976;7.594;2022-09-09T13:17:01;100055.00;;;40.00;20.63
20889;BME280;10604;51.976;7.594;2022-09-09T13:19:32;100055.97;;;39.55;21.11
20889;BME280;10604;51.976;7.594;2022-09-09T13:21:59;100050.13;;;37.75;22.50
20889;BME280;10604;51.976;7.594;2022-09-09T13:24:33;100064.66;;;39.80;21.72
20889;BME280;10604;51.976;7.594;2022-09-09T13:27:02;100078.03;;;39.22;24.25
20889;BME280;10604;51.976;7.594;2022-09-09T13:29:28;100073.91;;;38.39;25.62
20889;BME280;10604;51.976;7.594;2022-09-09T13:32:04;100072.47;;;36.42;28.12
20889;BME280;10604;51.976;7.594;2022-09-09T13:34:34;100067.72;;;38.20;27.13
20889;BME280;10604;51.976;7.594;2022-09-09T13:37:05;100069.31;;;39.13;26.38
20889;BME280;10604;51.976;7.594;2022-09-09T13:39:33;100071.16;;;40.51;26.24
20889;BME280;10604;51.976;7.594;2022-09-09T13:41:59;100059.41;;;41.15;25.90
20889;BME280;10604;51.976;7.594;2022-09-09T13:44:29;100066.38;;;42.33;23.33
20889;BME280;10604;51.976;7.594;2022-09-09T13:49:30;100058.41;;;40.99;22.45
20889;BME280;10604;51.976;7.594;2022-09-09T13:52:25;100053.00;;;40.60;23.66
20889;BME280;10604;51.976;7.594;2022-09-09T13:54:52;100049.56;;;39.04;24.47
20889;BME280;10604;51.976;7.594;2022-09-09T13:57:21;100052.25;;;38.19;24.97
20889;BME280;10604;51.976;7.594;2022-09-09T13:59:48;100062.47;;;38.07;25.05
20889;BME280;10604;51.976;7.594;2022-09-09T14:02:15;100060.75;;;38.98;24.93
20889;BME280;10604;51.976;7.594;2022-09-09T14:04:42;100054.56;;;38.11;24.29
20889;BME280;10604;51.976;7.594;2022-09-09T14:07:15;100050.22;;;37.33;24.83
20889;BME280;10604;51.976;7.594;2022-09-09T14:09:42;100058.88;;;38.47;23.89
20889;BME280;10604;51.976;7.594;2022-09-09T14:12:14;100057.38;;;38.51;24.00
20889;BME280;10604;51.976;7.594;2022-09-09T14:14:40;100055.53;;;37.58;24.71
20889;BME280;10604;51.976;7.594;2022-09-09T14:17:07;100068.50;;;37.16;25.56
20889;BME280;10604;51.976;7.594;2022-09-09T14:19:32;100053.13;;;37.50;24.74
20889;BME280;10604;51.976;7.594;2022-09-09T14:21:58;100056.19;;;37.18;25.04
20889;BME280;10604;51.976;7.594;2022-09-09T14:24:24;100069.53;;;37.91;24.13
20889;BME280;10604;51.976;7.594;2022-09-09T14:26:50;100081.44;;;37.27;25.15
20889;BME280;10604;51.976;7.594;2022-09-09T14:29:15;100108.44;;;35.97;27.62
20889;BME280;10604;51.976;7.594;2022-09-09T14:31:41;100111.53;;;35.33;29.16
20889;BME280;10604;51.976;7.594;2022-09-09T14:34:06;100107.69;;;37.00;27.07
20889;BME280;10604;51.976;7.594;2022-09-09T14:36:31;100108.97;;;36.31;28.10
20889;BME280;10604;51.976;7.594;2022-09-09T14:38:57;100112.78;;;36.30;28.44
20889;BME280;10604;51.976;7.594;2022-09-09T14:41:24;100112.69;;;37.03;27.73
20889;BME280;10604;51.976;7.594;2022-09-09T14:43:50;100113.84;;;36.47;29.36
20889;BME280;10604;51.976;7.594;2022-09-09T14:46:18;100124.78;;;35.05;31.66
20889;BME280;10604;51.976;7.594;2022-09-09T14:48:44;100129.22;;;35.93;30.53
20889;BME280;10604;51.976;7.594;2022-09-09T14:51:21;100120.91;;;35.50;31.27
20889;BME280;10604;51.976;7.594;2022-09-09T14:53:48;100122.41;;;35.96;30.42
20889;BME280;10604;51.976;7.594;2022-09-09T14:56:18;100123.09;;;35.91;31.05
20889;BME280;10604;51.976;7.594;2022-09-09T14:58:43;100113.38;;;35.08;32.72
20889;BME280;10604;51.976;7.594;2022-09-09T15:01:11;100103.59;;;35.18;32.79